sensor_id;sensor_type;location;lat;lon;timestamp;P1;durP1;ratioP1;P2;durP2;ratioP2
36191;SDS011;22233;42.708;23.360;2023-04-24T00:01:26;4.45;;;3.10;;
36191;SDS011;22233;42.708;23.360;2023-04-24T00:03:54;5.20;;;3.75;;
36191;SDS011;22233;42.708;23.360;2023-04-24T00:06:19;5.40;;;3.55;;
36191;SDS011;22233;42.708;23.360;2023-04-24T00:08:45;6.00;;;3.30;;
36191;SDS011;22233;42.708;23.360;2023-04-24T00:11:10;3.72;;;3.28;;
36191;SDS011;22233;42.708;23.360;2023-04-24T00:13:36;4.32;;;3.08;;
36191;SDS011;22233;42.708;23.360;2023-04-24T00:16:02;3.83;;;3.17;;
36191;SDS011;22233;42.708;23.360;2023-04-24T00:18:28;5.68;;;3.63;;
36191;SDS011;22233;42.708;23.360;2023-04-24T00:20:53;4.95;;;2.97;;
36191;SDS011;22233;42.708;23.360;2023-04-24T00:23:19;5.93;;;3.35;;
36191;SDS011;22233;42.708;23.360;2023-04-24T00:25:44;5.43;;;3.33;;
36191;SDS011;22233;42.708;23.360;2023-04-24T00:28:09;4.32;;;3.63;;
36191;SDS011;22233;42.708;23.360;2023-04-24T00:30:35;4.60;;;3.45;;
36191;SDS011;22233;42.708;23.360;2023-04-24T00:33:01;4.80;;;3.13;;
36191;SDS011;22233;42.708;23.360;2023-04-24T00:35:26;4.93;;;3.28;;
36191;SDS011;22233;42.708;23.360;2023-04-24T00:37:51;7.93;;;3.92;;
36191;SDS011;22233;42.708;23.360;2023-04-24T00:40:17;4.43;;;2.85;;
36191;SDS011;22233;42.708;23.360;2023-04-24T00:42:43;4.22;;;3.20;;
36191;SDS011;22233;42.708;23.360;2023-04-24T00:45:08;4.45;;;3.10;;
36191;SDS011;22233;42.708;23.360;2023-04-24T00:47:34;5.50;;;3.28;;
36191;SDS011;22233;42.708;23.360;2023-04-24T00:50:01;4.88;;;3.33;;
36191;SDS011;22233;42.708;23.360;2023-04-24T00:52:30;5.35;;;3.40;;
36191;SDS011;22233;42.708;23.360;2023-04-24T00:54:57;6.25;;;4.15;;
36191;SDS011;22233;42.708;23.360;2023-04-24T00:57:22;4.75;;;3.42;;
36191;SDS011;22233;42.708;23.360;2023-04-24T00:59:48;6.15;;;3.88;;
36191;SDS011;22233;42.708;23.360;2023-04-24T01:02:15;4.28;;;3.55;;
36191;SDS011;22233;42.708;23.360;2023-04-24T01:04:40;4.82;;;3.55;;
36191;SDS011;22233;42.708;23.360;2023-04-24T01:07:06;4.85;;;3.92;;
36191;SDS011;22233;42.708;23.360;2023-04-24T01:09:36;5.65;;;3.30;;
36191;SDS011;22233;42.708;23.360;2023-04-24T01:12:04;5.30;;;3.65;;
36191;SDS011;22233;42.708;23.360;2023-04-24T01:14:30;4.75;;;3.45;;
36191;SDS011;22233;42.708;23.360;2023-04-24T01:16:56;6.53;;;3.42;;
36191;SDS011;22233;42.708;23.360;2023-04-24T01:19:22;5.45;;;4.00;;
36191;SDS011;22233;42.708;23.360;2023-04-24T01:21:48;4.72;;;3.60;;
36191;SDS011;22233;42.708;23.360;2023-04-24T01:24:18;7.20;;;3.35;;
36191;SDS011;22233;42.708;23.360;2023-04-24T01:26:45;5.47;;;3.20;;
36191;SDS011;22233;42.708;23.360;2023-04-24T01:29:11;8.65;;;3.92;;
36191;SDS011;22233;42.708;23.360;2023-04-24T01:31:37;5.93;;;4.07;;
36191;SDS011;22233;42.708;23.360;2023-04-24T01:34:04;9.43;;;4.05;;
36191;SDS011;22233;42.708;23.360;2023-04-24T01:36:30;6.10;;;4.07;;
36191;SDS011;22233;42.708;23.360;2023-04-24T01:38:57;5.18;;;3.97;;
36191;SDS011;22233;42.708;23.360;2023-04-24T01:41:22;4.65;;;3.35;;
36191;SDS011;22233;42.708;23.360;2023-04-24T01:43:48;4.13;;;3.17;;
36191;SDS011;22233;42.708;23.360;2023-04-24T01:46:14;4.07;;;3.70;;
36191;SDS011;22233;42.708;23.360;2023-04-24T01:48:40;4.10;;;3.35;;
36191;SDS011;22233;42.708;23.360;2023-04-24T01:51:06;5.78;;;3.78;;
36191;SDS011;22233;42.708;23.360;2023-04-24T01:53:32;5.97;;;3.65;;
36191;SDS011;22233;42.708;23.360;2023-04-24T01:55:57;6.10;;;4.20;;
36191;SDS011;22233;42.708;23.360;2023-04-24T01:58:23;4.47;;;3.88;;
36191;SDS011;22233;42.708;23.360;2023-04-24T02:00:48;6.15;;;3.90;;
36191;SDS011;22233;42.708;23.360;2023-04-24T02:03:14;5.38;;;3.65;;
36191;SDS011;22233;42.708;23.360;2023-04-24T02:05:39;5.63;;;4.13;;
36191;SDS011;22233;42.708;23.360;2023-04-24T02:08:05;6.45;;;4.60;;
36191;SDS011;22233;42.708;23.360;2023-04-24T02:10:30;5.75;;;4.32;;
36191;SDS011;22233;42.708;23.360;2023-04-24T02:12:56;4.60;;;3.45;;
36191;SDS011;22233;42.708;23.360;2023-04-24T02:15:21;6.15;;;3.90;;
36191;SDS011;22233;42.708;23.360;2023-04-24T02:17:46;6.03;;;4.13;;
36191;SDS011;22233;42.708;23.360;2023-04-24T02:20:12;4.95;;;4.07;;
36191;SDS011;22233;42.708;23.360;2023-04-24T02:22:37;8.75;;;4.38;;
36191;SDS011;22233;42.708;23.360;2023-04-24T02:25:03;7.18;;;4.32;;
36191;SDS011;22233;42.708;23.360;2023-04-24T02:27:28;5.78;;;4.10;;
36191;SDS011;22233;42.708;23.360;2023-04-24T02:29:54;8.13;;;3.90;;
36191;SDS011;22233;42.708;23.360;2023-04-24T02:32:20;5.35;;;3.95;;
36191;SDS011;22233;42.708;23.360;2023-04-24T02:34:45;5.57;;;3.90;;
36191;SDS011;22233;42.708;23.360;2023-04-24T02:37:11;5.43;;;3.47;;
36191;SDS011;22233;42.708;23.360;2023-04-24T02:39:36;5.03;;;3.60;;
36191;SDS011;22233;42.708;23.360;2023-04-24T02:42:01;6.22;;;4.13;;
36191;SDS011;22233;42.708;23.360;2023-04-24T02:44:27;4.93;;;4.32;;
36191;SDS011;22233;42.708;23.360;2023-04-24T02:46:53;6.50;;;3.97;;
36191;SDS011;22233;42.708;23.360;2023-04-24T02:49:18;4.82;;;3.53;;
36191;SDS011;22233;42.708;23.360;2023-04-24T02:51:44;7.45;;;3.58;;
36191;SDS011;22233;42.708;23.360;2023-04-24T02:54:09;6.57;;;4.00;;
36191;SDS011;22233;42.708;23.360;2023-04-24T02:56:35;7.65;;;3.72;;
36191;SDS011;22233;42.708;23.360;2023-04-24T02:59:01;4.82;;;3.70;;
36191;SDS011;22233;42.708;23.360;2023-04-24T03:01:26;4.72;;;4.20;;
36191;SDS011;22233;42.708;23.360;2023-04-24T03:03:51;7.47;;;5.43;;
36191;SDS011;22233;42.708;23.360;2023-04-24T03:06:17;8.27;;;4.57;;
36191;SDS011;22233;42.708;23.360;2023-04-24T03:08:42;5.55;;;4.65;;
36191;SDS011;22233;42.708;23.360;2023-04-24T03:11:08;5.35;;;3.92;;
36191;SDS011;22233;42.708;23.360;2023-04-24T03:13:33;7.57;;;4.25;;
36191;SDS011;22233;42.708;23.360;2023-04-24T03:15:58;6.28;;;3.92;;
36191;SDS011;22233;42.708;23.360;2023-04-24T03:18:24;5.72;;;4.63;;
36191;SDS011;22233;42.708;23.360;2023-04-24T03:20:50;9.35;;;8.25;;
36191;SDS011;22233;42.708;23.360;2023-04-24T03:23:15;9.60;;;8.70;;
36191;SDS011;22233;42.708;23.360;2023-04-24T03:25:41;13.40;;;12.00;;
36191;SDS011;22233;42.708;23.360;2023-04-24T03:28:07;12.07;;;6.35;;
36191;SDS011;22233;42.708;23.360;2023-04-24T03:30:33;8.55;;;5.70;;
36191;SDS011;22233;42.708;23.360;2023-04-24T03:32:59;7.10;;;6.07;;
36191;SDS011;22233;42.708;23.360;2023-04-24T03:35:24;8.50;;;5.07;;
36191;SDS011;22233;42.708;23.360;2023-04-24T03:37:50;8.85;;;4.20;;
36191;SDS011;22233;42.708;23.360;2023-04-24T03:40:15;7.28;;;4.82;;
36191;SDS011;22233;42.708;23.360;2023-04-24T03:42:40;9.20;;;5.60;;
36191;SDS011;22233;42.708;23.360;2023-04-24T03:45:06;8.98;;;5.28;;
36191;SDS011;22233;42.708;23.360;2023-04-24T03:47:32;11.23;;;6.00;;
36191;SDS011;22233;42.708;23.360;2023-04-24T03:49:57;10.10;;;6.70;;
36191;SDS011;22233;42.708;23.360;2023-04-24T03:52:23;10.32;;;6.03;;
36191;SDS011;22233;42.708;23.360;2023-04-24T03:54:48;5.97;;;5.38;;
36191;SDS011;22233;42.708;23.360;2023-04-24T03:57:14;5.38;;;4.47;;
36191;SDS011;22233;42.708;23.360;2023-04-24T03:59:39;14.30;;;5.53;;
36191;SDS011;22233;42.708;23.360;2023-04-24T04:02:05;8.48;;;4.82;;
36191;SDS011;22233;42.708;23.360;2023-04-24T04:04:30;5.65;;;3.90;;
36191;SDS011;22233;42.708;23.360;2023-04-24T04:06:56;8.32;;;4.30;;
36191;SDS011;22233;42.708;23.360;2023-04-24T04:09:21;4.50;;;3.78;;
36191;SDS011;22233;42.708;23.360;2023-04-24T04:11:47;7.53;;;3.90;;
36191;SDS011;22233;42.708;23.360;2023-04-24T04:14:12;6.82;;;4.45;;
36191;SDS011;22233;42.708;23.360;2023-04-24T04:16:38;8.98;;;5.63;;
36191;SDS011;22233;42.708;23.360;2023-04-24T04:19:03;11.65;;;6.20;;
36191;SDS011;22233;42.708;23.360;2023-04-24T04:21:29;10.90;;;6.45;;
36191;SDS011;22233;42.708;23.360;2023-04-24T04:23:56;8.50;;;6.60;;
36191;SDS011;22233;42.708;23.360;2023-04-24T04:26:21;12.25;;;7.15;;
36191;SDS011;22233;42.708;23.360;2023-04-24T04:28:50;11.73;;;6.55;;
36191;SDS011;22233;42.708;23.360;2023-04-24T04:31:17;14.23;;;8.57;;
36191;SDS011;22233;42.708;23.360;2023-04-24T04:33:43;11.50;;;9.32;;
36191;SDS011;22233;42.708;23.360;2023-04-24T04:36:08;13.02;;;8.65;;
36191;SDS011;22233;42.708;23.360;2023-04-24T04:38:34;11.32;;;9.10;;
36191;SDS011;22233;42.708;23.360;2023-04-24T04:41:00;14.43;;;9.55;;
36191;SDS011;22233;42.708;23.360;2023-04-24T04:43:25;8.50;;;6.90;;
36191;SDS011;22233;42.708;23.360;2023-04-24T04:45:51;9.90;;;6.85;;
36191;SDS011;22233;42.708;23.360;2023-04-24T04:48:17;39.38;;;13.88;;
36191;SDS011;22233;42.708;23.360;2023-04-24T04:50:43;48.63;;;16.42;;
36191;SDS011;22233;42.708;23.360;2023-04-24T04:53:09;58.88;;;19.60;;
36191;SDS011;22233;42.708;23.360;2023-04-24T04:55:35;39.03;;;15.57;;
36191;SDS011;22233;42.708;23.360;2023-04-24T04:58:01;37.97;;;13.70;;
36191;SDS011;22233;42.708;23.360;2023-04-24T05:00:27;46.92;;;16.40;;
36191;SDS011;22233;42.708;23.360;2023-04-24T05:02:54;40.15;;;16.45;;
36191;SDS011;22233;42.708;23.360;2023-04-24T05:05:19;16.50;;;8.88;;
36191;SDS011;22233;42.708;23.360;2023-04-24T05:07:45;14.50;;;8.75;;
36191;SDS011;22233;42.708;23.360;2023-04-24T05:10:10;17.80;;;8.68;;
36191;SDS011;22233;42.708;23.360;2023-04-24T05:12:36;12.75;;;7.10;;
36191;SDS011;22233;42.708;23.360;2023-04-24T05:15:01;13.98;;;6.97;;
36191;SDS011;22233;42.708;23.360;2023-04-24T05:17:27;8.82;;;6.50;;
36191;SDS011;22233;42.708;23.360;2023-04-24T05:19:53;8.02;;;6.28;;
36191;SDS011;22233;42.708;23.360;2023-04-24T05:22:19;8.20;;;6.72;;
36191;SDS011;22233;42.708;23.360;2023-04-24T05:24:46;11.20;;;6.75;;
36191;SDS011;22233;42.708;23.360;2023-04-24T05:27:11;10.55;;;7.20;;
36191;SDS011;22233;42.708;23.360;2023-04-24T05:29:37;11.38;;;8.48;;
36191;SDS011;22233;42.708;23.360;2023-04-24T05:32:03;18.85;;;7.45;;
36191;SDS011;22233;42.708;23.360;2023-04-24T05:34:28;15.55;;;7.05;;
36191;SDS011;22233;42.708;23.360;2023-04-24T05:36:53;9.68;;;5.80;;
36191;SDS011;22233;42.708;23.360;2023-04-24T05:39:19;8.57;;;5.00;;
36191;SDS011;22233;42.708;23.360;2023-04-24T05:41:45;7.53;;;4.60;;
36191;SDS011;22233;42.708;23.360;2023-04-24T05:44:10;10.55;;;4.88;;
36191;SDS011;22233;42.708;23.360;2023-04-24T05:46:36;9.18;;;5.30;;
36191;SDS011;22233;42.708;23.360;2023-04-24T05:49:01;11.18;;;5.57;;
36191;SDS011;22233;42.708;23.360;2023-04-24T05:51:27;13.48;;;6.88;;
36191;SDS011;22233;42.708;23.360;2023-04-24T05:53:53;9.27;;;4.38;;
36191;SDS011;22233;42.708;23.360;2023-04-24T05:56:19;8.82;;;4.75;;
36191;SDS011;22233;42.708;23.360;2023-04-24T05:58:45;9.48;;;4.43;;
36191;SDS011;22233;42.708;23.360;2023-04-24T06:01:12;4.95;;;4.35;;
36191;SDS011;22233;42.708;23.360;2023-04-24T06:03:40;5.68;;;4.53;;
36191;SDS011;22233;42.708;23.360;2023-04-24T06:06:06;5.90;;;4.43;;
36191;SDS011;22233;42.708;23.360;2023-04-24T06:08:32;7.47;;;4.70;;
36191;SDS011;22233;42.708;23.360;2023-04-24T06:10:57;8.57;;;4.93;;
36191;SDS011;22233;42.708;23.360;2023-04-24T06:13:23;11.13;;;6.00;;
36191;SDS011;22233;42.708;23.360;2023-04-24T06:15:49;8.23;;;4.80;;
36191;SDS011;22233;42.708;23.360;2023-04-24T06:18:14;11.50;;;5.40;;
36191;SDS011;22233;42.708;23.360;2023-04-24T06:20:40;7.53;;;5.20;;
36191;SDS011;22233;42.708;23.360;2023-04-24T06:23:05;8.45;;;4.78;;
36191;SDS011;22233;42.708;23.360;2023-04-24T06:25:31;8.80;;;5.25;;
36191;SDS011;22233;42.708;23.360;2023-04-24T06:27:56;7.75;;;5.32;;
36191;SDS011;22233;42.708;23.360;2023-04-24T06:30:22;6.80;;;5.32;;
36191;SDS011;22233;42.708;23.360;2023-04-24T06:32:48;7.63;;;5.47;;
36191;SDS011;22233;42.708;23.360;2023-04-24T06:35:13;7.32;;;5.38;;
36191;SDS011;22233;42.708;23.360;2023-04-24T06:37:39;7.15;;;5.28;;
36191;SDS011;22233;42.708;23.360;2023-04-24T06:40:06;8.35;;;5.22;;
36191;SDS011;22233;42.708;23.360;2023-04-24T06:42:32;10.13;;;5.45;;
36191;SDS011;22233;42.708;23.360;2023-04-24T06:44:57;8.40;;;5.38;;
36191;SDS011;22233;42.708;23.360;2023-04-24T06:47:23;8.77;;;5.13;;
36191;SDS011;22233;42.708;23.360;2023-04-24T06:49:48;9.02;;;5.88;;
36191;SDS011;22233;42.708;23.360;2023-04-24T06:52:15;7.53;;;5.22;;
36191;SDS011;22233;42.708;23.360;2023-04-24T06:54:41;8.95;;;5.10;;
36191;SDS011;22233;42.708;23.360;2023-04-24T06:57:07;8.65;;;5.28;;
36191;SDS011;22233;42.708;23.360;2023-04-24T06:59:33;8.98;;;5.25;;
36191;SDS011;22233;42.708;23.360;2023-04-24T07:01:58;8.95;;;5.90;;
36191;SDS011;22233;42.708;23.360;2023-04-24T07:04:24;10.80;;;5.70;;
36191;SDS011;22233;42.708;23.360;2023-04-24T07:06:50;8.98;;;5.43;;
36191;SDS011;22233;42.708;23.360;2023-04-24T07:09:16;10.73;;;6.45;;
36191;SDS011;22233;42.708;23.360;2023-04-24T07:11:43;7.53;;;5.47;;
36191;SDS011;22233;42.708;23.360;2023-04-24T07:14:09;11.05;;;5.35;;
36191;SDS011;22233;42.708;23.360;2023-04-24T07:16:35;7.07;;;5.30;;
36191;SDS011;22233;42.708;23.360;2023-04-24T07:19:00;5.95;;;4.78;;
36191;SDS011;22233;42.708;23.360;2023-04-24T07:21:26;7.85;;;5.63;;
36191;SDS011;22233;42.708;23.360;2023-04-24T07:23:52;12.00;;;6.05;;
36191;SDS011;22233;42.708;23.360;2023-04-24T07:26:17;6.55;;;5.53;;
36191;SDS011;22233;42.708;23.360;2023-04-24T07:28:43;7.75;;;5.00;;
36191;SDS011;22233;42.708;23.360;2023-04-24T07:31:10;11.27;;;5.65;;
36191;SDS011;22233;42.708;23.360;2023-04-24T07:33:36;8.77;;;5.38;;
36191;SDS011;22233;42.708;23.360;2023-04-24T07:36:02;12.32;;;6.13;;
36191;SDS011;22233;42.708;23.360;2023-04-24T07:38:31;7.85;;;5.55;;
36191;SDS011;22233;42.708;23.360;2023-04-24T07:40:57;8.48;;;5.50;;
36191;SDS011;22233;42.708;23.360;2023-04-24T07:43:22;7.07;;;5.32;;
36191;SDS011;22233;42.708;23.360;2023-04-24T07:45:49;7.70;;;5.65;;
36191;SDS011;22233;42.708;23.360;2023-04-24T07:48:15;9.70;;;6.45;;
36191;SDS011;22233;42.708;23.360;2023-04-24T07:50:41;12.23;;;5.57;;
36191;SDS011;22233;42.708;23.360;2023-04-24T07:53:07;8.25;;;5.47;;
36191;SDS011;22233;42.708;23.360;2023-04-24T07:55:32;8.07;;;5.22;;
36191;SDS011;22233;42.708;23.360;2023-04-24T07:57:58;7.05;;;5.28;;
36191;SDS011;22233;42.708;23.360;2023-04-24T08:00:23;7.95;;;4.88;;
36191;SDS011;22233;42.708;23.360;2023-04-24T08:02:49;8.00;;;4.88;;
36191;SDS011;22233;42.708;23.360;2023-04-24T08:05:14;5.00;;;4.50;;
36191;SDS011;22233;42.708;23.360;2023-04-24T08:07:40;4.88;;;3.95;;
36191;SDS011;22233;42.708;23.360;2023-04-24T08:10:07;5.57;;;3.75;;
36191;SDS011;22233;42.708;23.360;2023-04-24T08:15:00;5.45;;;4.30;;
36191;SDS011;22233;42.708;23.360;2023-04-24T08:17:25;9.45;;;4.95;;
36191;SDS011;22233;42.708;23.360;2023-04-24T08:19:51;4.05;;;3.65;;
36191;SDS011;22233;42.708;23.360;2023-04-24T08:22:18;5.93;;;4.45;;
36191;SDS011;22233;42.708;23.360;2023-04-24T08:24:43;9.02;;;4.88;;
36191;SDS011;22233;42.708;23.360;2023-04-24T08:27:09;5.03;;;4.35;;
36191;SDS011;22233;42.708;23.360;2023-04-24T08:29:35;5.68;;;4.50;;
36191;SDS011;22233;42.708;23.360;2023-04-24T08:32:01;5.95;;;4.35;;
36191;SDS011;22233;42.708;23.360;2023-04-24T08:34:27;5.43;;;4.18;;
36191;SDS011;22233;42.708;23.360;2023-04-24T08:36:52;5.57;;;4.05;;
36191;SDS011;22233;42.708;23.360;2023-04-24T08:39:17;6.78;;;4.00;;
36191;SDS011;22233;42.708;23.360;2023-04-24T08:41:43;4.82;;;3.83;;
36191;SDS011;22233;42.708;23.360;2023-04-24T08:44:10;9.83;;;4.00;;
36191;SDS011;22233;42.708;23.360;2023-04-24T08:46:37;8.10;;;4.82;;
36191;SDS011;22233;42.708;23.360;2023-04-24T08:49:04;7.30;;;4.47;;
36191;SDS011;22233;42.708;23.360;2023-04-24T08:51:30;5.43;;;3.67;;
36191;SDS011;22233;42.708;23.360;2023-04-24T08:53:56;4.93;;;3.50;;
36191;SDS011;22233;42.708;23.360;2023-04-24T08:56:22;7.13;;;3.83;;
36191;SDS011;22233;42.708;23.360;2023-04-24T08:58:50;5.18;;;3.50;;
36191;SDS011;22233;42.708;23.360;2023-04-24T09:01:16;7.45;;;3.45;;
36191;SDS011;22233;42.708;23.360;2023-04-24T09:03:47;6.38;;;4.28;;
36191;SDS011;22233;42.708;23.360;2023-04-24T09:06:14;8.18;;;3.33;;
36191;SDS011;22233;42.708;23.360;2023-04-24T09:08:41;5.15;;;3.50;;
36191;SDS011;22233;42.708;23.360;2023-04-24T09:11:08;5.22;;;3.35;;
36191;SDS011;22233;42.708;23.360;2023-04-24T09:13:35;6.88;;;3.97;;
36191;SDS011;22233;42.708;23.360;2023-04-24T09:16:00;7.43;;;3.70;;
36191;SDS011;22233;42.708;23.360;2023-04-24T09:18:26;5.35;;;3.30;;
36191;SDS011;22233;42.708;23.360;2023-04-24T09:21:07;6.45;;;3.53;;
36191;SDS011;22233;42.708;23.360;2023-04-24T09:23:34;6.50;;;3.58;;
36191;SDS011;22233;42.708;23.360;2023-04-24T09:26:00;8.88;;;3.60;;
36191;SDS011;22233;42.708;23.360;2023-04-24T09:28:31;5.25;;;3.47;;
36191;SDS011;22233;42.708;23.360;2023-04-24T09:33:32;4.03;;;3.60;;
36191;SDS011;22233;42.708;23.360;2023-04-24T09:35:58;5.07;;;2.90;;
36191;SDS011;22233;42.708;23.360;2023-04-24T09:38:30;6.32;;;3.05;;
36191;SDS011;22233;42.708;23.360;2023-04-24T09:41:07;5.45;;;3.38;;
36191;SDS011;22233;42.708;23.360;2023-04-24T09:43:37;4.22;;;3.28;;
36191;SDS011;22233;42.708;23.360;2023-04-24T09:46:06;4.45;;;3.15;;
36191;SDS011;22233;42.708;23.360;2023-04-24T09:48:35;4.53;;;2.97;;
36191;SDS011;22233;42.708;23.360;2023-04-24T09:53:29;4.35;;;2.95;;
36191;SDS011;22233;42.708;23.360;2023-04-24T09:55:55;3.35;;;2.90;;
36191;SDS011;22233;42.708;23.360;2023-04-24T09:58:26;5.65;;;2.83;;
36191;SDS011;22233;42.708;23.360;2023-04-24T10:00:54;4.72;;;3.17;;
36191;SDS011;22233;42.708;23.360;2023-04-24T10:03:20;4.60;;;3.03;;
36191;SDS011;22233;42.708;23.360;2023-04-24T10:05:46;3.53;;;3.22;;
36191;SDS011;22233;42.708;23.360;2023-04-24T10:08:12;4.72;;;3.47;;
36191;SDS011;22233;42.708;23.360;2023-04-24T10:10:39;7.78;;;2.95;;
36191;SDS011;22233;42.708;23.360;2023-04-24T10:13:09;5.93;;;3.08;;
36191;SDS011;22233;42.708;23.360;2023-04-24T10:15:35;3.17;;;2.88;;
36191;SDS011;22233;42.708;23.360;2023-04-24T10:18:01;6.78;;;2.83;;
36191;SDS011;22233;42.708;23.360;2023-04-24T10:20:29;4.97;;;3.03;;
36191;SDS011;22233;42.708;23.360;2023-04-24T10:22:56;4.97;;;2.83;;
36191;SDS011;22233;42.708;23.360;2023-04-24T10:25:23;6.90;;;2.83;;
36191;SDS011;22233;42.708;23.360;2023-04-24T10:27:50;5.63;;;3.05;;
36191;SDS011;22233;42.708;23.360;2023-04-24T10:30:17;5.13;;;3.05;;
36191;SDS011;22233;42.708;23.360;2023-04-24T10:32:44;4.07;;;2.80;;
36191;SDS011;22233;42.708;23.360;2023-04-24T10:35:11;5.97;;;3.00;;
36191;SDS011;22233;42.708;23.360;2023-04-24T10:37:39;4.35;;;2.97;;
36191;SDS011;22233;42.708;23.360;2023-04-24T10:40:09;4.43;;;3.72;;
36191;SDS011;22233;42.708;23.360;2023-04-24T10:42:36;5.73;;;2.93;;
36191;SDS011;22233;42.708;23.360;2023-04-24T10:45:06;8.57;;;3.47;;
36191;SDS011;22233;42.708;23.360;2023-04-24T10:47:40;5.05;;;3.55;;
36191;SDS011;22233;42.708;23.360;2023-04-24T10:50:10;6.50;;;3.08;;
36191;SDS011;22233;42.708;23.360;2023-04-24T10:52:45;4.28;;;3.08;;
36191;SDS011;22233;42.708;23.360;2023-04-24T10:55:13;4.68;;;2.95;;
36191;SDS011;22233;42.708;23.360;2023-04-24T11:00:27;5.25;;;2.83;;
36191;SDS011;22233;42.708;23.360;2023-04-24T11:02:53;4.95;;;2.80;;
36191;SDS011;22233;42.708;23.360;2023-04-24T11:05:19;5.07;;;3.00;;
36191;SDS011;22233;42.708;23.360;2023-04-24T11:13:09;5.78;;;2.67;;
36191;SDS011;22233;42.708;23.360;2023-04-24T11:15:35;4.55;;;2.78;;
36191;SDS011;22233;42.708;23.360;2023-04-24T11:18:00;5.13;;;3.33;;
36191;SDS011;22233;42.708;23.360;2023-04-24T11:20:26;3.25;;;2.90;;
36191;SDS011;22233;42.708;23.360;2023-04-24T11:22:54;6.80;;;3.25;;
36191;SDS011;22233;42.708;23.360;2023-04-24T11:25:22;2.83;;;2.50;;
36191;SDS011;22233;42.708;23.360;2023-04-24T11:27:48;5.30;;;3.00;;
36191;SDS011;22233;42.708;23.360;2023-04-24T11:30:18;5.30;;;3.20;;
36191;SDS011;22233;42.708;23.360;2023-04-24T11:32:50;5.43;;;2.85;;
36191;SDS011;22233;42.708;23.360;2023-04-24T11:35:16;7.35;;;3.05;;
36191;SDS011;22233;42.708;23.360;2023-04-24T11:37:44;4.85;;;3.10;;
36191;SDS011;22233;42.708;23.360;2023-04-24T11:40:11;8.20;;;3.28;;
36191;SDS011;22233;42.708;23.360;2023-04-24T11:42:41;4.40;;;3.72;;
36191;SDS011;22233;42.708;23.360;2023-04-24T11:47:42;4.50;;;3.45;;
36191;SDS011;22233;42.708;23.360;2023-04-24T11:50:10;5.80;;;3.50;;
36191;SDS011;22233;42.708;23.360;2023-04-24T11:52:37;4.82;;;3.42;;
36191;SDS011;22233;42.708;23.360;2023-04-24T11:55:04;4.32;;;3.20;;
36191;SDS011;22233;42.708;23.360;2023-04-24T11:57:31;3.67;;;3.10;;
36191;SDS011;22233;42.708;23.360;2023-04-24T12:00:01;2.60;;;2.38;;
36191;SDS011;22233;42.708;23.360;2023-04-24T12:02:28;4.13;;;2.50;;
36191;SDS011;22233;42.708;23.360;2023-04-24T12:04:53;4.55;;;2.92;;
36191;SDS011;22233;42.708;23.360;2023-04-24T12:07:19;2.63;;;1.98;;
36191;SDS011;22233;42.708;23.360;2023-04-24T12:12:14;3.40;;;2.47;;
36191;SDS011;22233;42.708;23.360;2023-04-24T12:14:47;3.15;;;2.83;;
36191;SDS011;22233;42.708;23.360;2023-04-24T12:17:14;2.78;;;2.45;;
36191;SDS011;22233;42.708;23.360;2023-04-24T12:19:56;3.83;;;2.80;;
36191;SDS011;22233;42.708;23.360;2023-04-24T12:22:23;3.58;;;2.63;;
36191;SDS011;22233;42.708;23.360;2023-04-24T12:25:22;4.53;;;2.88;;
36191;SDS011;22233;42.708;23.360;2023-04-24T12:27:41;3.35;;;3.13;;
36191;SDS011;22233;42.708;23.360;2023-04-24T12:30:10;2.72;;;2.53;;
36191;SDS011;22233;42.708;23.360;2023-04-24T12:32:43;2.97;;;2.65;;
36191;SDS011;22233;42.708;23.360;2023-04-24T12:35:10;4.13;;;2.88;;
36191;SDS011;22233;42.708;23.360;2023-04-24T12:37:35;2.72;;;2.50;;
36191;SDS011;22233;42.708;23.360;2023-04-24T12:40:08;6.00;;;3.42;;
36191;SDS011;22233;42.708;23.360;2023-04-24T12:42:35;4.90;;;2.78;;
36191;SDS011;22233;42.708;23.360;2023-04-24T12:45:07;4.95;;;2.58;;
36191;SDS011;22233;42.708;23.360;2023-04-24T12:47:34;3.72;;;2.72;;
36191;SDS011;22233;42.708;23.360;2023-04-24T12:50:01;2.60;;;2.22;;
36191;SDS011;22233;42.708;23.360;2023-04-24T12:52:28;3.03;;;2.45;;
36191;SDS011;22233;42.708;23.360;2023-04-24T12:54:55;5.25;;;2.75;;
36191;SDS011;22233;42.708;23.360;2023-04-24T12:57:23;2.58;;;2.15;;
36191;SDS011;22233;42.708;23.360;2023-04-24T12:59:50;2.70;;;2.40;;
36191;SDS011;22233;42.708;23.360;2023-04-24T13:02:16;3.90;;;2.50;;
36191;SDS011;22233;42.708;23.360;2023-04-24T13:04:45;3.25;;;1.90;;
36191;SDS011;22233;42.708;23.360;2023-04-24T13:07:12;3.75;;;2.83;;
36191;SDS011;22233;42.708;23.360;2023-04-24T13:09:40;3.20;;;2.50;;
36191;SDS011;22233;42.708;23.360;2023-04-24T13:12:07;3.10;;;2.78;;
36191;SDS011;22233;42.708;23.360;2023-04-24T13:14:33;3.65;;;2.40;;
36191;SDS011;22233;42.708;23.360;2023-04-24T13:16:59;4.43;;;2.47;;
36191;SDS011;22233;42.708;23.360;2023-04-24T13:19:25;4.03;;;2.55;;
36191;SDS011;22233;42.708;23.360;2023-04-24T13:21:51;6.38;;;2.72;;
36191;SDS011;22233;42.708;23.360;2023-04-24T13:24:17;4.40;;;2.80;;
36191;SDS011;22233;42.708;23.360;2023-04-24T13:26:43;4.03;;;2.85;;
36191;SDS011;22233;42.708;23.360;2023-04-24T13:29:08;4.22;;;3.10;;
36191;SDS011;22233;42.708;23.360;2023-04-24T13:31:34;4.35;;;3.28;;
36191;SDS011;22233;42.708;23.360;2023-04-24T13:34:00;5.47;;;3.33;;
36191;SDS011;22233;42.708;23.360;2023-04-24T13:36:26;4.20;;;3.58;;
36191;SDS011;22233;42.708;23.360;2023-04-24T13:38:51;3.45;;;3.15;;
36191;SDS011;22233;42.708;23.360;2023-04-24T13:41:17;3.13;;;2.42;;
36191;SDS011;22233;42.708;23.360;2023-04-24T13:43:42;4.45;;;3.25;;
36191;SDS011;22233;42.708;23.360;2023-04-24T13:46:08;3.60;;;3.30;;
36191;SDS011;22233;42.708;23.360;2023-04-24T13:48:34;5.57;;;3.60;;
36191;SDS011;22233;42.708;23.360;2023-04-24T13:50:59;10.95;;;4.25;;
36191;SDS011;22233;42.708;23.360;2023-04-24T13:53:25;6.75;;;3.40;;
36191;SDS011;22233;42.708;23.360;2023-04-24T13:55:50;6.70;;;3.85;;
36191;SDS011;22233;42.708;23.360;2023-04-24T13:58:16;2.88;;;2.20;;
36191;SDS011;22233;42.708;23.360;2023-04-24T14:00:41;4.00;;;2.70;;
36191;SDS011;22233;42.708;23.360;2023-04-24T14:03:07;6.13;;;2.72;;
36191;SDS011;22233;42.708;23.360;2023-04-24T14:05:32;2.53;;;2.25;;
36191;SDS011;22233;42.708;23.360;2023-04-24T14:07:58;3.28;;;2.67;;
36191;SDS011;22233;42.708;23.360;2023-04-24T14:10:23;3.80;;;2.22;;
36191;SDS011;22233;42.708;23.360;2023-04-24T14:12:49;2.40;;;2.20;;
36191;SDS011;22233;42.708;23.360;2023-04-24T14:15:15;3.40;;;2.55;;
36191;SDS011;22233;42.708;23.360;2023-04-24T14:17:41;3.38;;;2.13;;
36191;SDS011;22233;42.708;23.360;2023-04-24T14:20:07;3.10;;;2.55;;
36191;SDS011;22233;42.708;23.360;2023-04-24T14:22:33;3.60;;;2.58;;
36191;SDS011;22233;42.708;23.360;2023-04-24T14:24:59;4.95;;;3.17;;
36191;SDS011;22233;42.708;23.360;2023-04-24T14:27:24;4.60;;;3.47;;
36191;SDS011;22233;42.708;23.360;2023-04-24T14:29:51;3.42;;;2.78;;
36191;SDS011;22233;42.708;23.360;2023-04-24T14:32:17;3.10;;;2.45;;
36191;SDS011;22233;42.708;23.360;2023-04-24T14:34:43;4.03;;;2.72;;
36191;SDS011;22233;42.708;23.360;2023-04-24T14:37:08;3.08;;;2.15;;
36191;SDS011;22233;42.708;23.360;2023-04-24T14:39:34;3.85;;;2.67;;
36191;SDS011;22233;42.708;23.360;2023-04-24T14:42:00;2.90;;;2.55;;
36191;SDS011;22233;42.708;23.360;2023-04-24T14:44:26;5.47;;;3.25;;
36191;SDS011;22233;42.708;23.360;2023-04-24T14:46:51;3.88;;;2.83;;
36191;SDS011;22233;42.708;23.360;2023-04-24T14:49:18;4.15;;;2.70;;